sensor_id;sensor_type;location;lat;lon;timestamp;P1;durP1;ratioP1;P2;durP2;ratioP2
19869;SDS011;10097;50.862;4.696;2024-03-17T00:00:14;10.13;;;4.53;;
19869;SDS011;10097;50.862;4.696;2024-03-17T00:02:40;9.70;;;4.53;;
19869;SDS011;10097;50.862;4.696;2024-03-17T00:05:06;10.17;;;4.40;;
19869;SDS011;10097;50.862;4.696;2024-03-17T00:07:32;10.70;;;4.20;;
19869;SDS011;10097;50.862;4.696;2024-03-17T00:09:58;10.43;;;3.87;;
19869;SDS011;10097;50.862;4.696;2024-03-17T00:12:24;11.63;;;4.60;;
19869;SDS011;10097;50.862;4.696;2024-03-17T00:14:49;9.80;;;4.60;;
19869;SDS011;10097;50.862;4.696;2024-03-17T00:17:15;11.70;;;4.90;;
19869;SDS011;10097;50.862;4.696;2024-03-17T00:19:40;11.77;;;4.70;;
19869;SDS011;10097;50.862;4.696;2024-03-17T00:22:06;9.70;;;4.60;;
19869;SDS011;10097;50.862;4.696;2024-03-17T00:24:34;9.27;;;4.37;;
19869;SDS011;10097;50.862;4.696;2024-03-17T00:27:03;11.53;;;4.87;;
19869;SDS011;10097;50.862;4.696;2024-03-17T00:29:28;12.30;;;4.80;;
19869;SDS011;10097;50.862;4.696;2024-03-17T00:31:54;12.07;;;4.63;;
19869;SDS011;10097;50.862;4.696;2024-03-17T00:34:20;9.17;;;5.03;;
19869;SDS011;10097;50.862;4.696;2024-03-17T00:36:46;11.60;;;4.73;;
19869;SDS011;10097;50.862;4.696;2024-03-17T00:39:12;12.13;;;5.03;;
19869;SDS011;10097;50.862;4.696;2024-03-17T00:41:37;13.27;;;4.60;;
19869;SDS011;10097;50.862;4.696;2024-03-17T00:44:03;12.67;;;4.90;;
19869;SDS011;10097;50.862;4.696;2024-03-17T00:46:29;11.37;;;4.27;;
19869;SDS011;10097;50.862;4.696;2024-03-17T00:48:55;12.37;;;4.80;;
19869;SDS011;10097;50.862;4.696;2024-03-17T00:51:21;10.20;;;4.70;;
19869;SDS011;10097;50.862;4.696;2024-03-17T00:53:46;12.80;;;5.07;;
19869;SDS011;10097;50.862;4.696;2024-03-17T00:56:12;11.03;;;4.87;;
19869;SDS011;10097;50.862;4.696;2024-03-17T00:58:38;12.43;;;5.17;;
19869;SDS011;10097;50.862;4.696;2024-03-17T01:01:04;14.50;;;6.33;;
19869;SDS011;10097;50.862;4.696;2024-03-17T01:03:29;14.23;;;6.20;;
19869;SDS011;10097;50.862;4.696;2024-03-17T01:05:55;13.60;;;5.73;;
19869;SDS011;10097;50.862;4.696;2024-03-17T01:08:20;14.67;;;6.13;;
19869;SDS011;10097;50.862;4.696;2024-03-17T01:10:48;12.27;;;6.33;;
19869;SDS011;10097;50.862;4.696;2024-03-17T01:13:17;13.93;;;6.23;;
19869;SDS011;10097;50.862;4.696;2024-03-17T01:15:43;13.93;;;7.20;;
19869;SDS011;10097;50.862;4.696;2024-03-17T01:18:09;16.90;;;7.20;;
19869;SDS011;10097;50.862;4.696;2024-03-17T01:20:35;14.27;;;6.90;;
19869;SDS011;10097;50.862;4.696;2024-03-17T01:23:02;13.23;;;7.17;;
19869;SDS011;10097;50.862;4.696;2024-03-17T01:25:28;13.53;;;6.57;;
19869;SDS011;10097;50.862;4.696;2024-03-17T01:27:56;13.83;;;7.13;;
19869;SDS011;10097;50.862;4.696;2024-03-17T01:30:22;15.00;;;7.10;;
19869;SDS011;10097;50.862;4.696;2024-03-17T01:32:49;17.87;;;7.30;;
19869;SDS011;10097;50.862;4.696;2024-03-17T01:35:16;14.30;;;7.60;;
19869;SDS011;10097;50.862;4.696;2024-03-17T01:37:42;13.73;;;7.10;;
19869;SDS011;10097;50.862;4.696;2024-03-17T01:40:08;14.97;;;6.63;;
19869;SDS011;10097;50.862;4.696;2024-03-17T01:42:35;13.43;;;6.77;;
19869;SDS011;10097;50.862;4.696;2024-03-17T01:45:09;15.50;;;6.90;;
19869;SDS011;10097;50.862;4.696;2024-03-17T01:47:54;14.70;;;6.47;;
19869;SDS011;10097;50.862;4.696;2024-03-17T01:50:24;16.03;;;7.60;;
19869;SDS011;10097;50.862;4.696;2024-03-17T01:52:56;15.63;;;7.63;;
19869;SDS011;10097;50.862;4.696;2024-03-17T01:55:25;15.53;;;6.77;;
19869;SDS011;10097;50.862;4.696;2024-03-17T01:57:52;15.97;;;7.70;;
19869;SDS011;10097;50.862;4.696;2024-03-17T02:00:18;14.67;;;7.33;;
19869;SDS011;10097;50.862;4.696;2024-03-17T02:02:44;14.80;;;7.27;;
19869;SDS011;10097;50.862;4.696;2024-03-17T02:05:10;14.47;;;7.47;;
19869;SDS011;10097;50.862;4.696;2024-03-17T02:07:35;16.40;;;7.80;;
19869;SDS011;10097;50.862;4.696;2024-03-17T02:10:01;18.53;;;8.60;;
19869;SDS011;10097;50.862;4.696;2024-03-17T02:12:31;13.27;;;7.30;;
19869;SDS011;10097;50.862;4.696;2024-03-17T02:15:00;19.53;;;8.07;;
19869;SDS011;10097;50.862;4.696;2024-03-17T02:17:26;16.40;;;8.53;;
19869;SDS011;10097;50.862;4.696;2024-03-17T02:19:53;16.73;;;7.87;;
19869;SDS011;10097;50.862;4.696;2024-03-17T02:22:19;16.90;;;8.60;;
19869;SDS011;10097;50.862;4.696;2024-03-17T02:24:45;17.40;;;8.33;;
19869;SDS011;10097;50.862;4.696;2024-03-17T02:27:11;19.20;;;8.57;;
19869;SDS011;10097;50.862;4.696;2024-03-17T02:29:37;22.00;;;8.60;;
19869;SDS011;10097;50.862;4.696;2024-03-17T02:32:03;18.47;;;8.43;;
19869;SDS011;10097;50.862;4.696;2024-03-17T02:34:34;16.87;;;8.37;;
19869;SDS011;10097;50.862;4.696;2024-03-17T02:37:01;18.33;;;9.03;;
19869;SDS011;10097;50.862;4.696;2024-03-17T02:39:29;17.13;;;8.80;;
19869;SDS011;10097;50.862;4.696;2024-03-17T02:42:04;15.33;;;8.07;;
19869;SDS011;10097;50.862;4.696;2024-03-17T02:44:31;15.13;;;7.77;;
19869;SDS011;10097;50.862;4.696;2024-03-17T02:46:58;18.73;;;8.63;;
19869;SDS011;10097;50.862;4.696;2024-03-17T02:49:25;13.97;;;7.20;;
19869;SDS011;10097;50.862;4.696;2024-03-17T02:51:53;17.83;;;8.07;;
19869;SDS011;10097;50.862;4.696;2024-03-17T02:54:21;16.50;;;7.90;;
19869;SDS011;10097;50.862;4.696;2024-03-17T02:56:48;12.03;;;6.73;;
19869;SDS011;10097;50.862;4.696;2024-03-17T02:59:14;17.47;;;8.17;;
19869;SDS011;10097;50.862;4.696;2024-03-17T03:01:39;16.23;;;8.30;;
19869;SDS011;10097;50.862;4.696;2024-03-17T03:04:05;18.53;;;7.67;;
19869;SDS011;10097;50.862;4.696;2024-03-17T03:06:31;15.77;;;7.80;;
19869;SDS011;10097;50.862;4.696;2024-03-17T03:08:58;17.30;;;7.67;;
19869;SDS011;10097;50.862;4.696;2024-03-17T03:11:23;17.70;;;7.43;;
19869;SDS011;10097;50.862;4.696;2024-03-17T03:13:49;17.03;;;7.70;;
19869;SDS011;10097;50.862;4.696;2024-03-17T03:16:15;15.57;;;7.90;;
19869;SDS011;10097;50.862;4.696;2024-03-17T03:18:41;17.93;;;7.50;;
19869;SDS011;10097;50.862;4.696;2024-03-17T03:21:07;13.80;;;7.20;;
19869;SDS011;10097;50.862;4.696;2024-03-17T03:23:33;15.97;;;7.33;;
19869;SDS011;10097;50.862;4.696;2024-03-17T03:25:59;18.03;;;7.37;;
19869;SDS011;10097;50.862;4.696;2024-03-17T03:28:28;16.27;;;7.47;;
19869;SDS011;10097;50.862;4.696;2024-03-17T03:30:54;15.17;;;7.23;;
19869;SDS011;10097;50.862;4.696;2024-03-17T03:33:20;16.50;;;6.97;;
19869;SDS011;10097;50.862;4.696;2024-03-17T03:35:46;12.83;;;6.63;;
19869;SDS011;10097;50.862;4.696;2024-03-17T03:38:12;18.00;;;7.03;;
19869;SDS011;10097;50.862;4.696;2024-03-17T03:40:39;15.83;;;6.97;;
19869;SDS011;10097;50.862;4.696;2024-03-17T03:43:05;16.00;;;6.77;;
19869;SDS011;10097;50.862;4.696;2024-03-17T03:45:31;19.00;;;7.47;;
19869;SDS011;10097;50.862;4.696;2024-03-17T03:47:56;12.97;;;6.87;;
19869;SDS011;10097;50.862;4.696;2024-03-17T03:50:22;18.43;;;6.77;;
19869;SDS011;10097;50.862;4.696;2024-03-17T03:52:48;18.70;;;7.43;;
19869;SDS011;10097;50.862;4.696;2024-03-17T03:55:15;15.07;;;6.63;;
19869;SDS011;10097;50.862;4.696;2024-03-17T03:57:41;14.27;;;7.20;;
19869;SDS011;10097;50.862;4.696;2024-03-17T04:00:10;13.20;;;6.57;;
19869;SDS011;10097;50.862;4.696;2024-03-17T04:02:46;11.87;;;6.47;;
19869;SDS011;10097;50.862;4.696;2024-03-17T04:05:13;14.50;;;6.53;;
19869;SDS011;10097;50.862;4.696;2024-03-17T04:07:39;13.13;;;7.00;;
19869;SDS011;10097;50.862;4.696;2024-03-17T04:10:05;14.80;;;6.70;;
19869;SDS011;10097;50.862;4.696;2024-03-17T04:12:31;17.00;;;6.90;;
19869;SDS011;10097;50.862;4.696;2024-03-17T04:14:58;16.80;;;6.70;;
19869;SDS011;10097;50.862;4.696;2024-03-17T04:17:24;13.37;;;6.73;;
19869;SDS011;10097;50.862;4.696;2024-03-17T04:19:50;14.33;;;7.37;;
19869;SDS011;10097;50.862;4.696;2024-03-17T04:22:17;14.30;;;6.90;;
19869;SDS011;10097;50.862;4.696;2024-03-17T04:24:43;13.23;;;7.43;;
19869;SDS011;10097;50.862;4.696;2024-03-17T04:27:10;13.87;;;6.37;;
19869;SDS011;10097;50.862;4.696;2024-03-17T04:29:35;13.23;;;7.23;;
19869;SDS011;10097;50.862;4.696;2024-03-17T04:32:01;16.23;;;8.10;;
19869;SDS011;10097;50.862;4.696;2024-03-17T04:34:27;15.63;;;7.53;;
19869;SDS011;10097;50.862;4.696;2024-03-17T04:36:53;17.00;;;7.83;;
19869;SDS011;10097;50.862;4.696;2024-03-17T04:39:19;15.60;;;7.43;;
19869;SDS011;10097;50.862;4.696;2024-03-17T04:41:45;13.97;;;7.50;;
19869;SDS011;10097;50.862;4.696;2024-03-17T04:44:13;15.63;;;7.93;;
19869;SDS011;10097;50.862;4.696;2024-03-17T04:46:38;13.57;;;7.30;;
19869;SDS011;10097;50.862;4.696;2024-03-17T04:49:04;13.70;;;6.63;;
19869;SDS011;10097;50.862;4.696;2024-03-17T04:51:30;17.67;;;6.97;;
19869;SDS011;10097;50.862;4.696;2024-03-17T04:53:58;15.03;;;7.13;;
19869;SDS011;10097;50.862;4.696;2024-03-17T04:56:24;16.00;;;7.97;;
19869;SDS011;10097;50.862;4.696;2024-03-17T04:58:49;19.23;;;7.13;;
19869;SDS011;10097;50.862;4.696;2024-03-17T05:01:15;17.17;;;7.20;;
19869;SDS011;10097;50.862;4.696;2024-03-17T05:03:41;13.47;;;6.97;;
19869;SDS011;10097;50.862;4.696;2024-03-17T05:06:07;15.87;;;7.63;;
19869;SDS011;10097;50.862;4.696;2024-03-17T05:08:33;16.10;;;7.80;;
19869;SDS011;10097;50.862;4.696;2024-03-17T05:11:03;17.77;;;7.83;;
19869;SDS011;10097;50.862;4.696;2024-03-17T05:13:34;14.90;;;7.53;;
19869;SDS011;10097;50.862;4.696;2024-03-17T05:16:01;18.67;;;7.53;;
19869;SDS011;10097;50.862;4.696;2024-03-17T05:18:28;13.37;;;7.30;;
19869;SDS011;10097;50.862;4.696;2024-03-17T05:20:58;12.77;;;6.33;;
19869;SDS011;10097;50.862;4.696;2024-03-17T05:23:31;17.33;;;7.03;;
19869;SDS011;10097;50.862;4.696;2024-03-17T05:25:59;15.23;;;7.30;;
19869;SDS011;10097;50.862;4.696;2024-03-17T05:28:25;14.43;;;6.93;;
19869;SDS011;10097;50.862;4.696;2024-03-17T05:30:53;14.47;;;7.37;;
19869;SDS011;10097;50.862;4.696;2024-03-17T05:33:19;14.17;;;7.83;;
19869;SDS011;10097;50.862;4.696;2024-03-17T05:35:52;17.87;;;7.27;;
19869;SDS011;10097;50.862;4.696;2024-03-17T05:38:22;17.00;;;7.80;;
19869;SDS011;10097;50.862;4.696;2024-03-17T05:40:53;14.60;;;7.30;;
19869;SDS011;10097;50.862;4.696;2024-03-17T05:43:19;14.50;;;7.03;;
19869;SDS011;10097;50.862;4.696;2024-03-17T05:45:44;14.07;;;7.20;;
19869;SDS011;10097;50.862;4.696;2024-03-17T05:48:10;14.77;;;7.03;;
19869;SDS011;10097;50.862;4.696;2024-03-17T05:50:35;15.07;;;7.30;;
19869;SDS011;10097;50.862;4.696;2024-03-17T05:53:01;17.00;;;8.60;;
19869;SDS011;10097;50.862;4.696;2024-03-17T05:55:28;15.90;;;7.17;;
19869;SDS011;10097;50.862;4.696;2024-03-17T05:57:53;15.10;;;7.37;;
19869;SDS011;10097;50.862;4.696;2024-03-17T06:00:19;11.93;;;6.53;;
19869;SDS011;10097;50.862;4.696;2024-03-17T06:02:45;12.47;;;6.80;;
19869;SDS011;10097;50.862;4.696;2024-03-17T06:05:12;16.63;;;7.60;;
19869;SDS011;10097;50.862;4.696;2024-03-17T06:07:39;15.50;;;7.10;;
19869;SDS011;10097;50.862;4.696;2024-03-17T06:10:05;12.37;;;7.10;;
19869;SDS011;10097;50.862;4.696;2024-03-17T06:12:31;16.30;;;7.53;;
19869;SDS011;10097;50.862;4.696;2024-03-17T06:14:57;12.13;;;6.43;;
19869;SDS011;10097;50.862;4.696;2024-03-17T06:17:23;13.80;;;6.80;;
19869;SDS011;10097;50.862;4.696;2024-03-17T06:19:48;16.47;;;7.30;;
19869;SDS011;10097;50.862;4.696;2024-03-17T06:22:14;13.47;;;7.37;;
19869;SDS011;10097;50.862;4.696;2024-03-17T06:24:39;15.03;;;6.97;;
19869;SDS011;10097;50.862;4.696;2024-03-17T06:27:05;18.53;;;7.17;;
19869;SDS011;10097;50.862;4.696;2024-03-17T06:29:34;15.17;;;7.33;;
19869;SDS011;10097;50.862;4.696;2024-03-17T06:32:00;14.63;;;7.03;;
19869;SDS011;10097;50.862;4.696;2024-03-17T06:34:26;16.57;;;6.97;;
19869;SDS011;10097;50.862;4.696;2024-03-17T06:36:51;13.83;;;6.97;;
19869;SDS011;10097;50.862;4.696;2024-03-17T06:39:17;13.37;;;6.40;;
19869;SDS011;10097;50.862;4.696;2024-03-17T06:41:44;13.00;;;6.03;;
19869;SDS011;10097;50.862;4.696;2024-03-17T06:44:10;13.47;;;5.97;;
19869;SDS011;10097;50.862;4.696;2024-03-17T06:46:36;12.43;;;5.97;;
19869;SDS011;10097;50.862;4.696;2024-03-17T06:49:01;15.17;;;6.30;;
19869;SDS011;10097;50.862;4.696;2024-03-17T06:51:27;13.67;;;6.60;;
19869;SDS011;10097;50.862;4.696;2024-03-17T06:53:53;15.57;;;6.53;;
19869;SDS011;10097;50.862;4.696;2024-03-17T06:56:18;14.77;;;6.60;;
19869;SDS011;10097;50.862;4.696;2024-03-17T06:58:44;13.10;;;6.40;;
19869;SDS011;10097;50.862;4.696;2024-03-17T07:01:10;15.43;;;6.17;;
19869;SDS011;10097;50.862;4.696;2024-03-17T07:03:35;13.67;;;5.73;;
19869;SDS011;10097;50.862;4.696;2024-03-17T07:06:01;14.17;;;6.40;;
19869;SDS011;10097;50.862;4.696;2024-03-17T07:08:28;16.43;;;6.33;;
19869;SDS011;10097;50.862;4.696;2024-03-17T07:11:05;12.40;;;5.97;;
19869;SDS011;10097;50.862;4.696;2024-03-17T07:13:38;12.37;;;5.97;;
19869;SDS011;10097;50.862;4.696;2024-03-17T07:16:04;15.03;;;5.73;;
19869;SDS011;10097;50.862;4.696;2024-03-17T07:18:31;12.17;;;5.67;;
19869;SDS011;10097;50.862;4.696;2024-03-17T07:20:57;13.37;;;5.77;;
19869;SDS011;10097;50.862;4.696;2024-03-17T07:23:24;11.90;;;5.47;;
19869;SDS011;10097;50.862;4.696;2024-03-17T07:25:54;14.17;;;6.17;;
19869;SDS011;10097;50.862;4.696;2024-03-17T07:28:20;13.17;;;6.03;;
19869;SDS011;10097;50.862;4.696;2024-03-17T07:30:50;12.60;;;5.17;;
19869;SDS011;10097;50.862;4.696;2024-03-17T07:33:17;10.87;;;5.53;;
19869;SDS011;10097;50.862;4.696;2024-03-17T07:38:16;14.03;;;5.37;;
19869;SDS011;10097;50.862;4.696;2024-03-17T07:40:43;11.73;;;5.37;;
19869;SDS011;10097;50.862;4.696;2024-03-17T07:43:09;13.00;;;5.40;;
19869;SDS011;10097;50.862;4.696;2024-03-17T07:45:35;13.17;;;5.00;;
19869;SDS011;10097;50.862;4.696;2024-03-17T07:48:00;13.83;;;5.70;;
19869;SDS011;10097;50.862;4.696;2024-03-17T07:50:26;11.20;;;5.80;;
19869;SDS011;10097;50.862;4.696;2024-03-17T07:52:57;9.87;;;4.90;;
19869;SDS011;10097;50.862;4.696;2024-03-17T07:55:23;10.27;;;5.20;;
19869;SDS011;10097;50.862;4.696;2024-03-17T07:57:48;9.63;;;4.73;;
19869;SDS011;10097;50.862;4.696;2024-03-17T08:00:19;13.03;;;4.70;;
19869;SDS011;10097;50.862;4.696;2024-03-17T08:02:46;8.33;;;4.27;;
19869;SDS011;10097;50.862;4.696;2024-03-17T08:05:12;10.67;;;4.67;;
19869;SDS011;10097;50.862;4.696;2024-03-17T08:07:38;11.17;;;4.40;;
19869;SDS011;10097;50.862;4.696;2024-03-17T08:10:04;11.70;;;4.50;;
19869;SDS011;10097;50.862;4.696;2024-03-17T08:12:30;11.73;;;5.13;;
19869;SDS011;10097;50.862;4.696;2024-03-17T08:14:56;9.53;;;4.50;;
19869;SDS011;10097;50.862;4.696;2024-03-17T08:17:21;11.77;;;5.00;;
19869;SDS011;10097;50.862;4.696;2024-03-17T08:19:47;13.37;;;4.73;;
19869;SDS011;10097;50.862;4.696;2024-03-17T08:22:13;13.83;;;3.97;;
19869;SDS011;10097;50.862;4.696;2024-03-17T08:24:39;9.40;;;3.83;;
19869;SDS011;10097;50.862;4.696;2024-03-17T08:27:05;10.97;;;4.03;;
19869;SDS011;10097;50.862;4.696;2024-03-17T08:29:31;9.40;;;3.70;;
19869;SDS011;10097;50.862;4.696;2024-03-17T08:31:58;11.27;;;3.73;;
19869;SDS011;10097;50.862;4.696;2024-03-17T08:34:24;10.13;;;3.83;;
19869;SDS011;10097;50.862;4.696;2024-03-17T08:36:49;10.53;;;3.83;;
19869;SDS011;10097;50.862;4.696;2024-03-17T08:39:15;9.03;;;3.30;;
19869;SDS011;10097;50.862;4.696;2024-03-17T08:41:41;10.13;;;3.90;;
19869;SDS011;10097;50.862;4.696;2024-03-17T08:44:09;7.67;;;3.43;;
19869;SDS011;10097;50.862;4.696;2024-03-17T08:46:34;9.70;;;3.80;;
19869;SDS011;10097;50.862;4.696;2024-03-17T08:49:00;10.43;;;3.87;;
19869;SDS011;10097;50.862;4.696;2024-03-17T08:51:26;9.55;;;3.28;;
19869;SDS011;10097;50.862;4.696;2024-03-17T08:53:52;8.23;;;3.40;;
19869;SDS011;10097;50.862;4.696;2024-03-17T08:56:18;11.50;;;3.47;;
19869;SDS011;10097;50.862;4.696;2024-03-17T08:58:45;9.95;;;3.40;;
19869;SDS011;10097;50.862;4.696;2024-03-17T09:01:11;8.45;;;3.00;;
19869;SDS011;10097;50.862;4.696;2024-03-17T09:03:39;10.27;;;2.90;;
19869;SDS011;10097;50.862;4.696;2024-03-17T09:06:11;9.10;;;3.05;;
19869;SDS011;10097;50.862;4.696;2024-03-17T09:08:43;6.40;;;2.65;;
19869;SDS011;10097;50.862;4.696;2024-03-17T09:11:12;7.07;;;2.92;;
19869;SDS011;10097;50.862;4.696;2024-03-17T09:13:39;9.20;;;3.72;;
19869;SDS011;10097;50.862;4.696;2024-03-17T09:16:04;9.48;;;2.75;;
19869;SDS011;10097;50.862;4.696;2024-03-17T09:18:31;7.50;;;2.80;;
19869;SDS011;10097;50.862;4.696;2024-03-17T09:20:58;12.90;;;2.90;;
19869;SDS011;10097;50.862;4.696;2024-03-17T09:23:33;8.48;;;2.90;;
19869;SDS011;10097;50.862;4.696;2024-03-17T09:26:00;7.43;;;2.63;;
19869;SDS011;10097;50.862;4.696;2024-03-17T09:28:41;8.95;;;3.15;;
19869;SDS011;10097;50.862;4.696;2024-03-17T09:31:07;8.70;;;2.97;;
19869;SDS011;10097;50.862;4.696;2024-03-17T09:33:32;6.72;;;2.47;;
19869;SDS011;10097;50.862;4.696;2024-03-17T09:36:00;12.18;;;3.47;;
19869;SDS011;10097;50.862;4.696;2024-03-17T09:38:30;8.60;;;2.65;;
19869;SDS011;10097;50.862;4.696;2024-03-17T09:40:56;6.88;;;2.38;;
19869;SDS011;10097;50.862;4.696;2024-03-17T09:43:26;8.32;;;2.50;;
19869;SDS011;10097;50.862;4.696;2024-03-17T09:46:02;8.30;;;2.35;;
19869;SDS011;10097;50.862;4.696;2024-03-17T09:48:28;7.15;;;2.20;;
19869;SDS011;10097;50.862;4.696;2024-03-17T09:50:55;6.10;;;2.03;;
19869;SDS011;10097;50.862;4.696;2024-03-17T09:53:32;7.63;;;2.08;;
19869;SDS011;10097;50.862;4.696;2024-03-17T09:58:34;8.48;;;2.25;;
19869;SDS011;10097;50.862;4.696;2024-03-17T10:01:00;6.13;;;2.33;;
19869;SDS011;10097;50.862;4.696;2024-03-17T10:06:09;5.55;;;2.17;;
19869;SDS011;10097;50.862;4.696;2024-03-17T10:11:45;6.75;;;2.25;;
19869;SDS011;10097;50.862;4.696;2024-03-17T10:14:12;7.43;;;2.72;;
19869;SDS011;10097;50.862;4.696;2024-03-17T10:16:43;6.22;;;2.17;;
19869;SDS011;10097;50.862;4.696;2024-03-17T10:19:14;7.20;;;2.58;;
19869;SDS011;10097;50.862;4.696;2024-03-17T10:21:44;7.85;;;2.15;;
19869;SDS011;10097;50.862;4.696;2024-03-17T10:24:21;5.53;;;2.10;;
19869;SDS011;10097;50.862;4.696;2024-03-17T10:26:51;7.60;;;2.17;;
19869;SDS011;10097;50.862;4.696;2024-03-17T10:29:22;13.43;;;2.65;;
19869;SDS011;10097;50.862;4.696;2024-03-17T10:32:02;8.68;;;2.78;;
19869;SDS011;10097;50.862;4.696;2024-03-17T10:34:30;7.10;;;2.10;;
19869;SDS011;10097;50.862;4.696;2024-03-17T10:37:16;5.20;;;2.05;;
19869;SDS011;10097;50.862;4.696;2024-03-17T10:39:45;7.28;;;2.35;;
19869;SDS011;10097;50.862;4.696;2024-03-17T10:42:13;5.65;;;2.30;;
19869;SDS011;10097;50.862;4.696;2024-03-17T10:44:39;8.32;;;2.20;;
19869;SDS011;10097;50.862;4.696;2024-03-17T10:47:07;7.82;;;2.53;;
19869;SDS011;10097;50.862;4.696;2024-03-17T10:49:40;6.30;;;2.17;;
19869;SDS011;10097;50.862;4.696;2024-03-17T10:52:08;7.35;;;2.65;;
19869;SDS011;10097;50.862;4.696;2024-03-17T10:54:42;7.70;;;2.58;;
19869;SDS011;10097;50.862;4.696;2024-03-17T10:57:27;9.65;;;2.28;;
19869;SDS011;10097;50.862;4.696;2024-03-17T11:00:04;5.50;;;2.08;;
19869;SDS011;10097;50.862;4.696;2024-03-17T11:02:33;7.88;;;2.33;;
19869;SDS011;10097;50.862;4.696;2024-03-17T11:05:04;7.43;;;2.60;;
19869;SDS011;10097;50.862;4.696;2024-03-17T11:07:36;8.50;;;2.35;;
19869;SDS011;10097;50.862;4.696;2024-03-17T11:10:04;11.10;;;2.50;;
19869;SDS011;10097;50.862;4.696;2024-03-17T11:12:53;7.10;;;2.05;;
19869;SDS011;10097;50.862;4.696;2024-03-17T11:17:55;7.80;;;2.05;;
19869;SDS011;10097;50.862;4.696;2024-03-17T11:20:55;6.80;;;2.10;;
19869;SDS011;10097;50.862;4.696;2024-03-17T11:23:54;5.25;;;1.88;;
19869;SDS011;10097;50.862;4.696;2024-03-17T11:26:29;10.48;;;1.83;;
19869;SDS011;10097;50.862;4.696;2024-03-17T11:29:00;8.05;;;1.90;;
19869;SDS011;10097;50.862;4.696;2024-03-17T11:36:59;5.78;;;1.42;;
19869;SDS011;10097;50.862;4.696;2024-03-17T11:42:16;8.13;;;1.60;;
19869;SDS011;10097;50.862;4.696;2024-03-17T11:44:42;6.68;;;2.03;;
19869;SDS011;10097;50.862;4.696;2024-03-17T11:47:10;5.97;;;2.08;;
19869;SDS011;10097;50.862;4.696;2024-03-17T11:49:37;7.97;;;1.48;;
19869;SDS011;10097;50.862;4.696;2024-03-17T11:52:13;7.53;;;1.70;;
19869;SDS011;10097;50.862;4.696;2024-03-17T11:54:41;7.78;;;1.60;;
19869;SDS011;10097;50.862;4.696;2024-03-17T11:57:14;5.20;;;1.58;;
19869;SDS011;10097;50.862;4.696;2024-03-17T11:59:50;5.10;;;1.48;;
19869;SDS011;10097;50.862;4.696;2024-03-17T12:02:26;8.77;;;2.38;;
19869;SDS011;10097;50.862;4.696;2024-03-17T12:04:56;4.93;;;1.42;;
19869;SDS011;10097;50.862;4.696;2024-03-17T12:07:23;6.50;;;1.65;;
19869;SDS011;10097;50.862;4.696;2024-03-17T12:09:50;5.32;;;1.30;;
19869;SDS011;10097;50.862;4.696;2024-03-17T12:14:45;5.32;;;1.42;;
19869;SDS011;10097;50.862;4.696;2024-03-17T12:17:12;5.40;;;1.10;;
19869;SDS011;10097;50.862;4.696;2024-03-17T12:19:44;7.38;;;1.40;;
19869;SDS011;10097;50.862;4.696;2024-03-17T12:22:16;6.05;;;1.30;;
19869;SDS011;10097;50.862;4.696;2024-03-17T12:24:43;6.20;;;1.25;;
19869;SDS011;10097;50.862;4.696;2024-03-17T12:27:15;7.68;;;1.48;;
19869;SDS011;10097;50.862;4.696;2024-03-17T12:29:49;7.95;;;1.75;;
19869;SDS011;10097;50.862;4.696;2024-03-17T12:32:16;10.50;;;1.58;;
19869;SDS011;10097;50.862;4.696;2024-03-17T12:34:49;7.32;;;1.60;;
19869;SDS011;10097;50.862;4.696;2024-03-17T12:37:22;8.63;;;1.75;;
19869;SDS011;10097;50.862;4.696;2024-03-17T12:39:50;6.32;;;1.60;;
19869;SDS011;10097;50.862;4.696;2024-03-17T12:42:22;6.50;;;1.88;;
19869;SDS011;10097;50.862;4.696;2024-03-17T12:47:16;8.50;;;1.40;;
19869;SDS011;10097;50.862;4.696;2024-03-17T12:49:46;4.55;;;1.38;;
19869;SDS011;10097;50.862;4.696;2024-03-17T12:52:20;9.23;;;2.03;;
19869;SDS011;10097;50.862;4.696;2024-03-17T12:55:01;4.93;;;1.25;;
19869;SDS011;10097;50.862;4.696;2024-03-17T12:57:46;5.03;;;1.42;;
19869;SDS011;10097;50.862;4.696;2024-03-17T13:00:32;7.40;;;1.88;;
19869;SDS011;10097;50.862;4.696;2024-03-17T13:02:59;5.35;;;1.65;;
19869;SDS011;10097;50.862;4.696;2024-03-17T13:05:26;4.68;;;1.70;;
19869;SDS011;10097;50.862;4.696;2024-03-17T13:07:52;5.65;;;1.58;;
19869;SDS011;10097;50.862;4.696;2024-03-17T13:10:21;6.00;;;1.60;;
19869;SDS011;10097;50.862;4.696;2024-03-17T13:12:48;7.40;;;1.88;;
19869;SDS011;10097;50.862;4.696;2024-03-17T13:15:22;5.03;;;1.50;;
19869;SDS011;10097;50.862;4.696;2024-03-17T13:17:48;7.82;;;1.90;;
19869;SDS011;10097;50.862;4.696;2024-03-17T13:20:14;9.70;;;2.25;;
19869;SDS011;10097;50.862;4.696;2024-03-17T13:22:44;6.03;;;1.73;;
19869;SDS011;10097;50.862;4.696;2024-03-17T13:27:43;9.75;;;1.90;;
19869;SDS011;10097;50.862;4.696;2024-03-17T13:30:13;6.15;;;1.63;;
19869;SDS011;10097;50.862;4.696;2024-03-17T13:32:40;8.02;;;1.70;;
19869;SDS011;10097;50.862;4.696;2024-03-17T13:35:13;5.65;;;1.58;;
19869;SDS011;10097;50.862;4.696;2024-03-17T13:37:41;6.82;;;1.40;;
19869;SDS011;10097;50.862;4.696;2024-03-17T13:40:07;4.50;;;1.30;;
19869;SDS011;10097;50.862;4.696;2024-03-17T13:42:35;5.38;;;1.23;;
19869;SDS011;10097;50.862;4.696;2024-03-17T13:45:00;4.50;;;1.38;;
19869;SDS011;10097;50.862;4.696;2024-03-17T13:47:26;6.68;;;1.65;;
19869;SDS011;10097;50.862;4.696;2024-03-17T13:49:52;5.53;;;1.30;;
19869;SDS011;10097;50.862;4.696;2024-03-17T13:52:18;10.15;;;1.70;;
19869;SDS011;10097;50.862;4.696;2024-03-17T13:54:44;5.63;;;1.35;;
19869;SDS011;10097;50.862;4.696;2024-03-17T13:57:10;9.13;;;1.70;;
19869;SDS011;10097;50.862;4.696;2024-03-17T13:59:37;4.25;;;1.58;;
19869;SDS011;10097;50.862;4.696;2024-03-17T14:02:03;4.63;;;1.48;;
19869;SDS011;10097;50.862;4.696;2024-03-17T14:04:29;5.30;;;1.48;;
19869;SDS011;10097;50.862;4.696;2024-03-17T14:06:55;6.30;;;1.70;;
19869;SDS011;10097;50.862;4.696;2024-03-17T14:09:21;8.57;;;1.15;;
19869;SDS011;10097;50.862;4.696;2024-03-17T14:11:47;5.80;;;1.67;;
19869;SDS011;10097;50.862;4.696;2024-03-17T14:14:14;5.82;;;1.45;;
19869;SDS011;10097;50.862;4.696;2024-03-17T14:16:40;6.85;;;1.20;;
19869;SDS011;10097;50.862;4.696;2024-03-17T14:19:07;7.30;;;1.30;;
19869;SDS011;10097;50.862;4.696;2024-03-17T14:21:33;6.65;;;1.25;;
19869;SDS011;10097;50.862;4.696;2024-03-17T14:23:59;5.50;;;1.27;;
19869;SDS011;10097;50.862;4.696;2024-03-17T14:26:26;9.27;;;1.48;;
19869;SDS011;10097;50.862;4.696;2024-03-17T14:28:52;6.65;;;1.30;;
19869;SDS011;10097;50.862;4.696;2024-03-17T14:31:19;4.32;;;1.30;;
19869;SDS011;10097;50.862;4.696;2024-03-17T14:33:45;5.18;;;1.70;;
19869;SDS011;10097;50.862;4.696;2024-03-17T14:36:11;7.15;;;1.60;;
19869;SDS011;10097;50.862;4.696;2024-03-17T14:38:36;5.75;;;1.40;;
19869;SDS011;10097;50.862;4.696;2024-03-17T14:41:02;7.90;;;1.48;;
19869;SDS011;10097;50.862;4.696;2024-03-17T14:43:29;7.65;;;1.70;;
19869;SDS011;10097;50.862;4.696;2024-03-17T14:45:55;6.18;;;0.95;;
19869;SDS011;10097;50.862;4.696;2024-03-17T14:48:22;4.78;;;1.30;;
19869;SDS011;10097;50.862;4.696;2024-03-17T14:50:48;6.35;;;1.42;;
19869;SDS011;10097;50.862;4.696;2024-03-17T14:53:14;7.60;;;1.50;;
19869;SDS011;10097;50.862;4.696;2024-03-17T14:55:39;4.15;;;1.10;;
19869;SDS011;10097;50.862;4.696;2024-03-17T14:58:05;5.38;;;1.30;;
19869;SDS011;10097;50.862;4.696;2024-03-17T15:00:31;7.75;;;2.17;;
19869;SDS011;10097;50.862;4.696;2024-03-17T15:02:57;9.52;;;1.75;;
19869;SDS011;10097;50.862;4.696;2024-03-17T15:05:23;6.78;;;1.40;;
19869;SDS011;10097;50.862;4.696;2024-03-17T15:07:50;5.88;;;1.30;;
19869;SDS011;10097;50.862;4.696;2024-03-17T15:10:16;5.43;;;1.55;;
19869;SDS011;10097;50.862;4.696;2024-03-17T15:12:48;5.00;;;1.60;;